createdAt,value
2023-03-28T00:01:04.606Z,-0.70
2023-03-28T00:06:05.979Z,-0.80
2023-03-28T00:11:19.036Z,-0.80
2023-03-28T00:13:49.845Z,-0.70
2023-03-28T00:21:24.174Z,-0.70
2023-03-28T00:23:54.273Z,-0.70
2023-03-28T00:26:24.990Z,-0.70
2023-03-28T00:31:22.266Z,-0.70
2023-03-28T00:36:23.012Z,-0.80
2023-03-28T00:41:24.318Z,-0.80
2023-03-28T00:43:56.773Z,-0.70
2023-03-28T00:46:42.187Z,-0.70
2023-03-28T00:49:17.470Z,-0.70
2023-03-28T00:51:50.545Z,-0.50
2023-03-28T00:54:20.198Z,-0.50
2023-03-28T00:56:52.205Z,-0.40
2023-03-28T00:59:23.671Z,-0.40
2023-03-28T01:04:22.424Z,-0.30
2023-03-28T01:06:56.877Z,-0.20
2023-03-28T01:11:56.323Z,-0.20
2023-03-28T01:14:27.384Z,-0.10
2023-03-28T01:19:58.834Z,-0.10
2023-03-28T01:22:56.735Z,-0.20
2023-03-28T01:25:43.507Z,0.00
2023-03-28T01:28:32.754Z,0.00
2023-03-28T01:31:47.110Z,-0.40
2023-03-28T01:34:39.478Z,0.10
2023-03-28T01:37:26.091Z,0.10
2023-03-28T01:40:18.284Z,-0.10
2023-03-28T01:43:21.444Z,0.10
2023-03-28T01:46:29.827Z,0.20
2023-03-28T01:49:20.328Z,0.20
2023-03-28T01:52:05.368Z,0.20
2023-03-28T01:54:52.443Z,0.20
2023-03-28T01:57:55.488Z,0.20
2023-03-28T02:00:34.659Z,0.20
2023-03-28T02:03:13.197Z,0.30
2023-03-28T02:05:54.680Z,0.30
2023-03-28T02:08:28.539Z,0.30
2023-03-28T02:11:26.604Z,0.40
2023-03-28T02:14:06.490Z,0.40
2023-03-28T02:16:54.828Z,0.40
2023-03-28T02:19:55.373Z,0.50
2023-03-28T02:22:35.315Z,0.50
2023-03-28T02:25:19.115Z,0.50
2023-03-28T02:28:02.867Z,0.50
2023-03-28T02:33:38.065Z,0.50
2023-03-28T02:36:34.510Z,0.60
2023-03-28T02:39:21.571Z,0.50
2023-03-28T02:41:49.335Z,0.80
2023-03-28T02:47:05.416Z,0.60
2023-03-28T02:49:50.495Z,0.70
2023-03-28T02:54:58.714Z,0.50
2023-03-28T03:00:19.996Z,0.70
2023-03-28T03:02:51.703Z,0.20
2023-03-28T03:05:21.173Z,0.70
2023-03-28T03:07:51.142Z,0.70
2023-03-28T03:10:20.586Z,0.80
2023-03-28T03:15:17.701Z,0.90
2023-03-28T03:17:59.653Z,0.70
2023-03-28T03:23:05.111Z,1.10
2023-03-28T03:28:14.423Z,1.10
2023-03-28T03:30:43.380Z,1.30
2023-03-28T03:36:06.236Z,0.80
2023-03-28T03:41:03.976Z,0.50
2023-03-28T03:43:34.958Z,1.10
2023-03-28T03:46:04.934Z,0.50
2023-03-28T03:53:35.021Z,0.70
2023-03-28T04:17:35.647Z,0.50
2023-03-28T06:10:29.805Z,1.10
2023-03-28T06:28:10.882Z,3.30
2023-03-28T06:33:26.611Z,4.50
2023-03-28T06:35:53.980Z,4.40
2023-03-28T06:38:21.699Z,5.00
2023-03-28T06:40:52.359Z,5.50
2023-03-28T06:43:19.991Z,6.10
2023-03-28T06:45:57.974Z,6.20
2023-03-28T06:48:33.585Z,6.20
2023-03-28T06:51:25.697Z,6.30
2023-03-28T06:53:53.724Z,6.20
2023-03-28T06:56:25.568Z,5.50
2023-03-28T06:58:53.069Z,5.20
2023-03-28T07:01:25.676Z,5.30
2023-03-28T07:04:25.598Z,7.30
2023-03-28T07:06:52.965Z,5.20
2023-03-28T07:09:20.901Z,4.90
2023-03-28T07:11:55.071Z,4.90
2023-03-28T07:14:23.597Z,4.50
2023-03-28T07:16:50.925Z,4.90
2023-03-28T07:19:18.513Z,6.00
2023-03-28T07:21:47.892Z,5.40
2023-03-28T07:24:15.688Z,5.40
2023-03-28T07:27:11.786Z,5.30
2023-03-28T07:29:43.054Z,4.80
2023-03-28T07:32:11.126Z,5.30
2023-03-28T07:34:38.727Z,5.50
2023-03-28T07:37:09.265Z,6.50
2023-03-28T07:39:48.104Z,6.80
2023-03-28T07:42:20.694Z,7.30
2023-03-28T07:44:48.239Z,6.60
2023-03-28T07:47:18.412Z,6.90
2023-03-28T07:49:47.491Z,7.80
2023-03-28T07:52:16.002Z,8.50
2023-03-28T07:54:43.944Z,8.90
2023-03-28T07:57:11.547Z,9.30
2023-03-28T07:59:54.243Z,9.50
2023-03-28T08:02:22.085Z,9.80
2023-03-28T08:04:50.171Z,9.60
2023-03-28T08:07:21.955Z,9.40
2023-03-28T08:09:52.408Z,9.20
2023-03-28T08:12:23.907Z,9.20
2023-03-28T08:14:51.925Z,8.20
2023-03-28T08:17:23.324Z,7.50
2023-03-28T08:19:53.237Z,7.80
2023-03-28T08:22:41.284Z,7.90
2023-03-28T08:25:29.295Z,8.50
2023-03-28T08:27:57.074Z,8.20
2023-03-28T08:30:24.722Z,7.80
2023-03-28T08:32:58.584Z,6.40
2023-03-28T08:35:27.239Z,5.90
2023-03-28T08:37:58.487Z,6.50
2023-03-28T08:40:29.011Z,6.10
2023-03-28T08:43:27.098Z,5.70
2023-03-28T08:46:00.108Z,4.90
2023-03-28T08:48:47.214Z,5.00
2023-03-28T08:51:35.773Z,6.40
2023-03-28T08:54:21.625Z,7.50
2023-03-28T08:56:56.500Z,8.70
2023-03-28T08:59:29.567Z,9.00
2023-03-28T09:01:57.859Z,8.70
2023-03-28T09:04:35.434Z,9.00
2023-03-28T09:07:42.334Z,8.30
2023-03-28T09:10:09.738Z,8.30
2023-03-28T09:12:55.334Z,9.00
2023-03-28T09:15:34.106Z,9.70
2023-03-28T09:18:04.725Z,9.80
2023-03-28T09:20:54.659Z,10.10
2023-03-28T09:23:58.027Z,9.00
2023-03-28T09:27:07.132Z,8.20
2023-03-28T09:29:42.728Z,7.50
2023-03-28T09:32:31.036Z,8.00
2023-03-28T09:34:59.479Z,9.00
2023-03-28T09:37:30.134Z,9.00
2023-03-28T09:40:06.364Z,9.80
2023-03-28T09:43:05.080Z,12.30
2023-03-28T09:46:00.462Z,10.50
2023-03-28T09:48:54.756Z,10.40
2023-03-28T09:51:26.212Z,8.70
2023-03-28T09:53:54.798Z,7.40
2023-03-28T09:56:35.295Z,6.20
2023-03-28T09:59:36.534Z,5.60
2023-03-28T10:02:34.065Z,6.40
2023-03-28T10:05:37.587Z,8.00
2023-03-28T10:08:35.649Z,9.70
2023-03-28T10:11:22.841Z,11.00
2023-03-28T10:13:53.408Z,11.40
2023-03-28T10:16:29.163Z,10.20
2023-03-28T10:19:14.333Z,8.80
2023-03-28T10:22:08.767Z,7.60
2023-03-28T10:24:40.179Z,6.40
2023-03-28T10:27:16.936Z,5.60
2023-03-28T10:29:46.569Z,5.40
2023-03-28T10:32:31.830Z,6.70
2023-03-28T10:35:28.183Z,8.10
2023-03-28T10:38:21.358Z,9.60
2023-03-28T10:41:23.909Z,11.10
2023-03-28T10:44:26.615Z,11.50
2023-03-28T10:47:05.446Z,12.50
2023-03-28T10:49:47.359Z,11.30
2023-03-28T10:52:35.932Z,9.70
2023-03-28T10:55:09.843Z,8.20
2023-03-28T10:58:22.084Z,6.90
2023-03-28T11:00:56.790Z,6.40
2023-03-28T11:03:34.740Z,5.90
2023-03-28T11:06:10.373Z,5.60
2023-03-28T11:08:57.965Z,7.10
2023-03-28T11:11:44.634Z,9.00
2023-03-28T11:14:17.999Z,10.80
2023-03-28T11:17:01.493Z,11.20
2023-03-28T11:19:47.028Z,10.90
2023-03-28T11:22:23.899Z,9.70
2023-03-28T11:25:08.725Z,9.30
2023-03-28T11:28:48.337Z,8.50
2023-03-28T11:31:29.118Z,6.90
2023-03-28T11:34:14.673Z,6.20
2023-03-28T11:37:01.055Z,5.50
2023-03-28T11:39:54.868Z,6.10
2023-03-28T11:42:41.987Z,7.50
2023-03-28T11:45:12.548Z,9.60
2023-03-28T11:47:45.783Z,11.00
2023-03-28T11:50:17.717Z,11.60
2023-03-28T11:53:15.977Z,11.40
2023-03-28T11:56:28.091Z,10.40
2023-03-28T11:59:25.808Z,10.60
2023-03-28T12:02:01.099Z,9.60
2023-03-28T12:04:37.814Z,8.30
2023-03-28T12:07:27.555Z,8.90
2023-03-28T12:10:22.843Z,10.30
2023-03-28T12:13:24.130Z,12.10
2023-03-28T12:16:12.117Z,10.60
2023-03-28T12:18:51.748Z,10.20
2023-03-28T12:21:47.976Z,11.30
2023-03-28T12:24:34.342Z,11.30
2023-03-28T12:27:43.047Z,10.10
2023-03-28T12:30:33.057Z,7.70
2023-03-28T12:33:04.055Z,6.60
2023-03-28T12:36:18.063Z,5.60
2023-03-28T12:39:01.274Z,5.80
2023-03-28T12:41:39.297Z,7.50
2023-03-28T12:44:17.256Z,9.20
2023-03-28T12:46:56.122Z,9.70
2023-03-28T12:49:39.540Z,10.50
2023-03-28T12:52:17.907Z,10.90
2023-03-28T12:54:58.339Z,10.40
2023-03-28T12:57:45.692Z,9.60
2023-03-28T13:00:41.592Z,8.20
2023-03-28T13:03:45.842Z,8.60
2023-03-28T13:07:05.480Z,9.70
2023-03-28T13:09:57.263Z,9.80
2023-03-28T13:12:37.833Z,9.50
2023-03-28T13:15:14.384Z,9.10
2023-03-28T13:18:22.039Z,8.20
2023-03-28T13:20:51.972Z,7.70
2023-03-28T13:23:30.776Z,7.30
2023-03-28T13:26:06.510Z,6.70
2023-03-28T13:28:44.319Z,6.30
2023-03-28T13:31:24.540Z,6.40
2023-03-28T13:34:02.636Z,6.60
2023-03-28T13:36:32.805Z,7.00
2023-03-28T13:39:19.422Z,7.60
2023-03-28T13:41:46.512Z,8.10
2023-03-28T13:44:27.635Z,8.80
2023-03-28T13:46:55.238Z,9.70
2023-03-28T13:49:28.599Z,11.00
2023-03-28T13:52:09.811Z,11.30
2023-03-28T13:54:37.283Z,11.90
2023-03-28T13:57:07.205Z,11.60
2023-03-28T13:59:38.474Z,10.60
2023-03-28T14:02:21.472Z,9.90
2023-03-28T14:04:55.240Z,9.50
2023-03-28T14:07:27.980Z,9.50
2023-03-28T14:09:57.533Z,10.20
2023-03-28T14:12:28.743Z,10.40
2023-03-28T14:15:01.571Z,10.90
2023-03-28T14:17:33.884Z,10.80
2023-03-28T14:20:07.645Z,10.40
2023-03-28T14:22:49.416Z,10.10
2023-03-28T14:25:27.695Z,9.30
2023-03-28T14:27:56.992Z,9.40
2023-03-28T14:30:30.683Z,9.50
2023-03-28T14:33:07.355Z,9.80
2023-03-28T14:35:36.815Z,9.50
2023-03-28T14:38:06.427Z,9.40
2023-03-28T14:40:38.936Z,9.10
2023-03-28T14:43:12.296Z,9.00
2023-03-28T14:45:50.660Z,8.90
2023-03-28T14:48:25.534Z,8.00
2023-03-28T14:50:55.052Z,7.20
2023-03-28T14:53:29.875Z,6.60
2023-03-28T14:56:12.883Z,6.10
2023-03-28T14:58:43.917Z,5.80
2023-03-28T15:01:24.114Z,5.70
2023-03-28T15:04:07.087Z,5.40
2023-03-28T15:06:36.652Z,5.30
2023-03-28T15:09:12.393Z,5.10
2023-03-28T15:11:44.476Z,5.10
2023-03-28T15:14:44.861Z,5.00
2023-03-28T15:17:24.638Z,4.80
2023-03-28T15:19:59.267Z,4.90
2023-03-28T15:22:30.489Z,4.70
2023-03-28T15:24:59.142Z,4.60
2023-03-28T15:27:35.961Z,4.70
2023-03-28T15:30:15.379Z,4.60
2023-03-28T15:32:45.145Z,4.60
2023-03-28T15:35:39.766Z,5.80
2023-03-28T15:38:19.657Z,4.40
2023-03-28T15:40:52.951Z,4.60
2023-03-28T15:43:27.554Z,4.50
2023-03-28T15:46:04.261Z,4.40
2023-03-28T15:48:37.379Z,4.40
2023-03-28T15:51:10.148Z,4.20
2023-03-28T15:53:42.229Z,4.10
2023-03-28T15:56:24.646Z,4.70
2023-03-28T15:58:53.752Z,4.00
2023-03-28T16:01:32.426Z,4.00
2023-03-28T16:04:16.250Z,4.00
2023-03-28T16:06:45.310Z,2.10
2023-03-28T16:09:20.664Z,4.00
2023-03-28T16:12:01.199Z,4.00
2023-03-28T16:14:53.242Z,3.80
2023-03-28T16:17:43.469Z,3.90
2023-03-28T16:20:37.250Z,3.80
2023-03-28T16:23:07.277Z,3.60
2023-03-28T16:25:35.644Z,5.30
2023-03-28T16:28:03.147Z,3.50
2023-03-28T16:30:41.270Z,3.50
2023-03-28T16:33:09.694Z,5.90
2023-03-28T16:35:38.240Z,3.40
2023-03-28T16:38:06.601Z,3.30
2023-03-28T16:40:34.572Z,3.20
2023-03-28T16:43:02.481Z,3.20
2023-03-28T16:45:31.264Z,3.10
2023-03-28T16:47:58.896Z,3.10
2023-03-28T16:50:27.396Z,3.00
2023-03-28T16:52:54.979Z,2.90
2023-03-28T16:55:24.008Z,2.90
2023-03-28T16:57:51.466Z,2.80
2023-03-28T17:00:24.585Z,2.60
2023-03-28T17:02:52.190Z,2.60
2023-03-28T17:05:20.067Z,2.80
2023-03-28T17:07:47.602Z,2.50
2023-03-28T17:10:16.441Z,2.40
2023-03-28T17:12:44.119Z,2.40
2023-03-28T17:15:12.350Z,5.00
2023-03-28T17:17:40.042Z,2.30
2023-03-28T17:20:09.449Z,2.30
2023-03-28T17:22:37.885Z,2.10
2023-03-28T17:25:06.768Z,2.10
2023-03-28T17:27:35.152Z,1.90
2023-03-28T17:30:03.664Z,3.20
2023-03-28T17:32:31.388Z,1.90
2023-03-28T17:34:59.343Z,1.90
2023-03-28T17:37:26.817Z,4.10
2023-03-28T17:39:55.239Z,2.90
2023-03-28T17:42:23.751Z,1.70
2023-03-28T17:44:52.739Z,1.70
2023-03-28T17:47:20.464Z,1.70
2023-03-28T17:49:48.293Z,1.50
2023-03-28T17:52:16.643Z,1.50
2023-03-28T17:54:44.773Z,1.40
2023-03-28T17:57:12.759Z,2.70
2023-03-28T17:59:41.887Z,1.30
2023-03-28T18:02:10.420Z,1.30
2023-03-28T18:04:38.692Z,1.20
2023-03-28T18:07:28.104Z,1.20
2023-03-28T18:10:01.125Z,1.10
2023-03-28T18:12:29.283Z,1.00
2023-03-28T18:14:58.938Z,1.00
2023-03-28T18:17:28.922Z,1.00
2023-03-28T18:19:57.225Z,3.10
2023-03-28T18:22:25.245Z,0.90
2023-03-28T18:24:54.553Z,0.90
2023-03-28T18:27:22.299Z,0.80
2023-03-28T18:29:50.217Z,0.80
2023-03-28T18:32:17.983Z,0.80
2023-03-28T18:37:15.380Z,0.80
2023-03-28T18:39:45.557Z,0.70
2023-03-28T18:42:13.223Z,0.60
2023-03-28T18:44:41.233Z,0.40
2023-03-28T18:47:11.021Z,0.30
2023-03-28T18:49:41.173Z,0.30
2023-03-28T18:52:11.008Z,0.20
2023-03-28T18:54:38.889Z,0.10
2023-03-28T18:59:35.848Z,0.10
2023-03-28T19:02:03.756Z,-0.10
2023-03-28T19:04:33.737Z,-0.10
2023-03-28T19:07:02.233Z,-0.20
2023-03-28T19:09:30.566Z,-0.20
2023-03-28T19:11:58.880Z,-0.40
2023-03-28T19:14:27.297Z,-0.30
2023-03-28T19:16:54.670Z,-0.10
2023-03-28T19:19:24.061Z,0.20
2023-03-28T19:21:53.034Z,-0.10
2023-03-28T19:24:24.648Z,0.10
2023-03-28T19:26:53.882Z,-0.50
2023-03-28T19:29:22.365Z,-0.60
2023-03-28T19:31:52.402Z,-0.80
2023-03-28T19:34:22.564Z,-0.80
2023-03-28T19:39:22.141Z,-0.80
2023-03-28T19:41:50.549Z,-0.90
2023-03-28T19:44:19.807Z,-0.60
2023-03-28T19:46:49.205Z,-0.90
2023-03-28T19:51:48.571Z,-1.00
2023-03-28T19:54:19.142Z,-1.00
2023-03-28T20:01:47.250Z,-0.90
2023-03-28T20:04:17.718Z,-0.90
2023-03-28T20:11:43.881Z,-0.70
2023-03-28T20:19:13.754Z,-1.50
2023-03-28T20:21:42.071Z,-1.40
2023-03-28T20:24:12.886Z,-1.80
2023-03-28T20:29:14.186Z,-1.50
2023-03-28T20:44:07.847Z,-0.20
2023-03-28T20:46:38.624Z,-0.10
2023-03-28T20:49:08.644Z,-0.70
2023-03-28T21:04:08.797Z,-0.90
2023-03-28T21:09:14.363Z,-1.00
2023-03-28T21:14:13.583Z,-1.20
2023-03-28T21:24:07.374Z,-1.50
2023-03-28T21:31:33.321Z,-1.60
2023-03-28T22:01:14.375Z,-2.00
2023-03-28T22:08:40.598Z,-2.20
2023-03-28T22:11:15.974Z,-2.30
2023-03-28T22:13:47.818Z,-2.30
2023-03-28T22:31:11.310Z,-2.20
2023-03-28T22:43:33.288Z,-2.20
2023-03-28T22:46:00.768Z,-2.50
2023-03-28T23:10:48.171Z,-2.20
2023-03-28T23:13:16.550Z,-2.10
2023-03-28T23:30:35.641Z,-2.70
